Detall de PIREP

Printer-friendly versionPDF version

[2016/12/11 08:19:00]
Flight IATA:CT3243
Pilot Number:012
Company ICAO:CAT
Aircraft Type:MD11/E
PAX:243
Aircraft Registration:PAX
Departing Airport: LBSF
Destination Airport: LEPA
Alternate Airport:LEBL
Online: VATSIM
Route:OMENO Y505 NIKTI UY505 PEREN UM603 GOKEL M603 SOR M620 POKAV Y567 USEPI Z924 SUPUX UZ924 RIPAL UM603 MORSS
Flight Level:F370
No Slew and time accel
No pause
Crash detect
Detect pilot in Cockpit between each 30 and 45 minutes
08:19 Zero fuel Weight: 397090 Lbs, Fuel Weight: 63307 Lbs
08:19 VATSIM:LBSF 100800Z 25003KT 210V300 8000 NSC 04/M04 Q1026 NOSIG
08:19 VATSIM:LEPA 100800Z 00000KT 9000 1000NE R24R/0800N BCFG FEW001 08/08 Q1030 TEMPO 0600 BCFG
08:21 Parking Brakes off
08:26 Take-off
08:26 Take off Weight: 459231 Lbs
08:26 Wind: 245º @ 003 Knots Heading: 274º
08:26 POS N42º 41´ 45´´ E023º 24´ 13´´
08:26 Flaps:3 at 193 Knots
08:26 Gear Up: 201Knots
08:26 Flaps:2 at 224 Knots
08:26 Flaps:3 at 224 Knots
08:26 Flaps:2 at 224 Knots
08:26 Flaps:1 at 224 Knots
08:27 Flaps:0 at 254 Knots
08:41 Wind:006º@035 Knots Heading: 139º Ground Speed: 501 Knots Altitude 33330 ft
08:56 Wind:021º@032 Knots Heading: 252º Ground Speed: 494 Knots Altitude 33339 ft
09:11 Wind:039º@022 Knots Heading: 265º Ground Speed: 487 Knots Altitude 33389 ft
09:26 Wind:073º@027 Knots Heading: 265º Ground Speed: 499 Knots Altitude 33405 ft
09:41 Wind:072º@025 Knots Heading: 269º Ground Speed: 499 Knots Altitude 33461 ft
09:56 Wind:060º@029 Knots Heading: 275º Ground Speed: 496 Knots Altitude 33477 ft
10:11 Wind:047º@033 Knots Heading: 261º Ground Speed: 506 Knots Altitude 33517 ft
10:26 Wind:052º@022 Knots Heading: 261º Ground Speed: 498 Knots Altitude 33500 ft
10:41 Wind:073º@020 Knots Heading: 254º Ground Speed: 412 Knots Altitude 21292 ft
10:48 Flaps:1 at 288 Knots
10:50 Flaps:2 at 244 Knots
10:50 Flaps:3 at 243 Knots
10:54 Flaps:4 at 193 Knots
10:54 Flaps:3 at 192 Knots
10:54 Flaps:4 at 192 Knots
10:54 Flaps:5 at 190 Knots
10:54 Flaps:6 at 188 Knots
10:55 Gear Down: 198 Knots
10:55 Flaps:7 at 187 Knots
10:56 Wind:220º@000 Knots Heading: 232º Ground Speed: 190 Knots Altitude 3051 ft
10:57 Flaps:6 at 190 Knots
10:57 Flaps:7 at 189 Knots
10:59 Flaps:6 at 190 Knots
10:59 Flaps:7 at 189 Knots
11:01 TouchDown:Rate -269 ft/min Speed: 150 Knots
11:01 VATSIM:LEPA 101030Z 00000KT 9999 FEW015 17/16 Q1030 NOSIG
11:01 Land
11:01 Wind:268º@000 Knots
11:01 Heading: 238º
11:01 Flight Duration: 02:35
11:01 Landing Weight: 412637 Lbs
11:01 POS N39º 32´ 44´´ E002º 44´ 28´´
11:04 Parking brakes on
11:04 Block to Block Duration: 02:43
11:04 Final Fuel: 15209 Lbls
11:04 Spent Fuel: 48097 Lbls
11:04 Flight Length: 1188 NM
11:04 TOD Land Length: 1188 NM

Exportar CSV

Powered by Drupal - Modified by Danger4k